sensor_id;sensor_type;location;lat;lon;timestamp;temperature;humidity
9265;DHT22;4669;49.594;10.958;2022-11-20T05:22:33;2.60;99.90
9265;DHT22;4669;49.594;10.958;2022-11-20T05:27:35;2.60;99.90
9265;DHT22;4669;49.594;10.958;2022-11-20T05:32:37;2.60;99.90
9265;DHT22;4669;49.594;10.958;2022-11-20T05:37:40;2.60;99.90
9265;DHT22;4669;49.594;10.958;2022-11-20T05:42:42;2.60;99.90
9265;DHT22;4669;49.594;10.958;2022-11-20T05:47:44;2.60;99.90
9265;DHT22;4669;49.594;10.958;2022-11-20T05:52:47;2.60;99.90
9265;DHT22;4669;49.594;10.958;2022-11-20T05:57:49;2.50;99.90
9265;DHT22;4669;49.594;10.958;2022-11-20T06:02:51;2.50;99.90
9265;DHT22;4669;49.594;10.958;2022-11-20T06:07:55;2.50;99.90
9265;DHT22;4669;49.594;10.958;2022-11-20T06:12:57;2.50;99.90
9265;DHT22;4669;49.594;10.958;2022-11-20T06:17:59;2.50;99.90
9265;DHT22;4669;49.594;10.958;2022-11-20T06:23:02;2.50;99.90
9265;DHT22;4669;49.594;10.958;2022-11-20T06:28:04;2.50;99.90
9265;DHT22;4669;49.594;10.958;2022-11-20T06:33:06;2.60;99.90
9265;DHT22;4669;49.594;10.958;2022-11-20T06:38:10;2.70;99.90
9265;DHT22;4669;49.594;10.958;2022-11-20T06:43:12;2.60;99.90
9265;DHT22;4669;49.594;10.958;2022-11-20T06:48:14;2.60;99.90
9265;DHT22;4669;49.594;10.958;2022-11-20T06:53:17;2.60;99.90
9265;DHT22;4669;49.594;10.958;2022-11-20T06:58:19;2.70;99.90
9265;DHT22;4669;49.594;10.958;2022-11-20T07:03:21;2.60;99.90
9265;DHT22;4669;49.594;10.958;2022-11-20T07:08:24;2.70;99.90
9265;DHT22;4669;49.594;10.958;2022-11-20T07:13:27;2.70;99.90
9265;DHT22;4669;49.594;10.958;2022-11-20T07:18:29;2.80;99.90
9265;DHT22;4669;49.594;10.958;2022-11-20T07:23:32;2.80;99.90
9265;DHT22;4669;49.594;10.958;2022-11-20T07:28:35;2.70;99.90
9265;DHT22;4669;49.594;10.958;2022-11-20T07:33:37;2.70;99.90
9265;DHT22;4669;49.594;10.958;2022-11-20T07:38:40;2.70;99.90
9265;DHT22;4669;49.594;10.958;2022-11-20T07:43:42;2.70;99.90
9265;DHT22;4669;49.594;10.958;2022-11-20T07:48:44;2.80;99.90
9265;DHT22;4669;49.594;10.958;2022-11-20T07:53:50;2.80;99.90
9265;DHT22;4669;49.594;10.958;2022-11-20T07:58:52;2.90;99.90
9265;DHT22;4669;49.594;10.958;2022-11-20T08:03:54;2.90;99.90
9265;DHT22;4669;49.594;10.958;2022-11-20T08:08:58;2.80;99.90
9265;DHT22;4669;49.594;10.958;2022-11-20T08:14:00;2.80;99.90
9265;DHT22;4669;49.594;10.958;2022-11-20T08:19:15;2.80;99.90
9265;DHT22;4669;49.594;10.958;2022-11-20T08:24:19;2.90;99.90
9265;DHT22;4669;49.594;10.958;2022-11-20T08:29:21;2.90;99.90
9265;DHT22;4669;49.594;10.958;2022-11-20T08:34:23;2.90;99.90
9265;DHT22;4669;49.594;10.958;2022-11-20T08:39:26;2.90;99.90
9265;DHT22;4669;49.594;10.958;2022-11-20T08:44:28;2.90;99.90
9265;DHT22;4669;49.594;10.958;2022-11-20T08:49:30;2.90;99.90
9265;DHT22;4669;49.594;10.958;2022-11-20T08:54:34;3.00;99.90
9265;DHT22;4669;49.594;10.958;2022-11-20T08:59:36;3.00;99.90
9265;DHT22;4669;49.594;10.958;2022-11-20T09:04:37;3.10;99.90
9265;DHT22;4669;49.594;10.958;2022-11-20T09:09:41;3.10;99.90
9265;DHT22;4669;49.594;10.958;2022-11-20T09:14:43;3.10;99.90
9265;DHT22;4669;49.594;10.958;2022-11-20T09:19:45;3.10;99.90
9265;DHT22;4669;49.594;10.958;2022-11-20T09:24:48;3.10;99.90
9265;DHT22;4669;49.594;10.958;2022-11-20T09:29:50;3.20;99.90
9265;DHT22;4669;49.594;10.958;2022-11-20T09:34:53;3.10;99.90
9265;DHT22;4669;49.594;10.958;2022-11-20T09:40:19;3.10;99.90
9265;DHT22;4669;49.594;10.958;2022-11-20T09:45:37;3.10;99.90
9265;DHT22;4669;49.594;10.958;2022-11-20T09:50:47;3.10;99.90
9265;DHT22;4669;49.594;10.958;2022-11-20T09:56:00;3.20;99.90
9265;DHT22;4669;49.594;10.958;2022-11-20T10:01:10;3.20;99.90
9265;DHT22;4669;49.594;10.958;2022-11-20T10:06:18;3.30;99.90
9265;DHT22;4669;49.594;10.958;2022-11-20T10:11:38;3.30;99.90
9265;DHT22;4669;49.594;10.958;2022-11-20T10:16:56;3.30;99.90
9265;DHT22;4669;49.594;10.958;2022-11-20T10:22:09;3.30;99.90
9265;DHT22;4669;49.594;10.958;2022-11-20T10:27:56;3.30;99.90
9265;DHT22;4669;49.594;10.958;2022-11-20T10:33:06;3.40;99.90
9265;DHT22;4669;49.594;10.958;2022-11-20T10:38:18;3.40;99.90
9265;DHT22;4669;49.594;10.958;2022-11-20T10:43:32;3.40;99.90
9265;DHT22;4669;49.594;10.958;2022-11-20T10:48:34;3.50;99.90
9265;DHT22;4669;49.594;10.958;2022-11-20T10:53:47;3.50;99.90
9265;DHT22;4669;49.594;10.958;2022-11-20T10:59:08;3.50;99.90
9265;DHT22;4669;49.594;10.958;2022-11-20T11:04:28;3.40;99.90
9265;DHT22;4669;49.594;10.958;2022-11-20T11:09:35;3.30;99.90
9265;DHT22;4669;49.594;10.958;2022-11-20T11:14:45;3.20;99.90
9265;DHT22;4669;49.594;10.958;2022-11-20T11:20:00;3.20;99.90
9265;DHT22;4669;49.594;10.958;2022-11-20T11:25:02;3.30;99.90
9265;DHT22;4669;49.594;10.958;2022-11-20T11:30:17;3.50;99.90
9265;DHT22;4669;49.594;10.958;2022-11-20T11:35:22;3.60;99.90
9265;DHT22;4669;49.594;10.958;2022-11-20T11:40:25;3.80;99.90
9265;DHT22;4669;49.594;10.958;2022-11-20T11:45:31;3.80;99.90
9265;DHT22;4669;49.594;10.958;2022-11-20T11:50:33;3.80;99.90
9265;DHT22;4669;49.594;10.958;2022-11-20T11:55:40;3.90;99.90
9265;DHT22;4669;49.594;10.958;2022-11-20T12:00:51;4.00;99.90
9265;DHT22;4669;49.594;10.958;2022-11-20T12:05:59;4.10;99.90
9265;DHT22;4669;49.594;10.958;2022-11-20T12:11:06;4.00;99.90
9265;DHT22;4669;49.594;10.958;2022-11-20T12:16:15;4.00;99.90
9265;DHT22;4669;49.594;10.958;2022-11-20T12:21:25;4.00;99.90
9265;DHT22;4669;49.594;10.958;2022-11-20T12:26:39;4.00;99.90
9265;DHT22;4669;49.594;10.958;2022-11-20T12:31:55;3.90;99.90
9265;DHT22;4669;49.594;10.958;2022-11-20T12:37:06;3.90;99.90
9265;DHT22;4669;49.594;10.958;2022-11-20T12:42:40;4.00;99.90
9265;DHT22;4669;49.594;10.958;2022-11-20T12:48:28;4.00;99.90
9265;DHT22;4669;49.594;10.958;2022-11-20T12:53:39;4.00;99.90
9265;DHT22;4669;49.594;10.958;2022-11-20T12:58:49;4.10;99.90
9265;DHT22;4669;49.594;10.958;2022-11-20T13:04:00;4.20;99.90
9265;DHT22;4669;49.594;10.958;2022-11-20T13:09:10;4.20;99.90
9265;DHT22;4669;49.594;10.958;2022-11-20T13:14:24;4.10;99.90
9265;DHT22;4669;49.594;10.958;2022-11-20T13:19:29;4.00;99.90
9265;DHT22;4669;49.594;10.958;2022-11-20T13:24:32;4.00;99.90
9265;DHT22;4669;49.594;10.958;2022-11-20T13:29:35;3.90;99.90
9265;DHT22;4669;49.594;10.958;2022-11-20T13:34:39;3.90;99.90
9265;DHT22;4669;49.594;10.958;2022-11-20T13:39:41;3.90;99.90
9265;DHT22;4669;49.594;10.958;2022-11-20T13:44:47;3.90;99.90
9265;DHT22;4669;49.594;10.958;2022-11-20T13:49:54;3.80;99.90
9265;DHT22;4669;49.594;10.958;2022-11-20T13:55:05;3.90;99.90
9265;DHT22;4669;49.594;10.958;2022-11-20T14:00:13;3.90;99.90
9265;DHT22;4669;49.594;10.958;2022-11-20T14:05:20;3.90;99.90
9265;DHT22;4669;49.594;10.958;2022-11-20T14:10:24;3.90;99.90
9265;DHT22;4669;49.594;10.958;2022-11-20T14:15:29;3.80;99.90
9265;DHT22;4669;49.594;10.958;2022-11-20T14:20:32;3.80;99.90
9265;DHT22;4669;49.594;10.958;2022-11-20T14:25:34;3.80;99.90
9265;DHT22;4669;49.594;10.958;2022-11-20T14:30:42;3.80;99.90
9265;DHT22;4669;49.594;10.958;2022-11-20T14:35:47;3.90;99.90
9265;DHT22;4669;49.594;10.958;2022-11-20T14:40:50;3.80;99.90
9265;DHT22;4669;49.594;10.958;2022-11-20T14:45:56;3.80;99.90
9265;DHT22;4669;49.594;10.958;2022-11-20T14:51:01;3.90;99.90
9265;DHT22;4669;49.594;10.958;2022-11-20T14:56:03;3.90;99.90
9265;DHT22;4669;49.594;10.958;2022-11-20T15:01:07;3.80;99.90
9265;DHT22;4669;49.594;10.958;2022-11-20T15:06:12;3.90;99.90
9265;DHT22;4669;49.594;10.958;2022-11-20T15:11:18;3.90;99.90
9265;DHT22;4669;49.594;10.958;2022-11-20T15:16:22;3.90;99.90
9265;DHT22;4669;49.594;10.958;2022-11-20T15:21:26;3.90;99.90
9265;DHT22;4669;49.594;10.958;2022-11-20T15:26:28;4.00;99.90
9265;DHT22;4669;49.594;10.958;2022-11-20T15:31:30;4.00;99.90
9265;DHT22;4669;49.594;10.958;2022-11-20T15:36:34;3.90;99.90
9265;DHT22;4669;49.594;10.958;2022-11-20T15:41:36;3.90;99.90
9265;DHT22;4669;49.594;10.958;2022-11-20T15:46:41;4.00;99.90
9265;DHT22;4669;49.594;10.958;2022-11-20T15:51:49;3.90;99.90
9265;DHT22;4669;49.594;10.958;2022-11-20T15:56:53;4.00;99.90
9265;DHT22;4669;49.594;10.958;2022-11-20T16:01:56;4.00;99.90
9265;DHT22;4669;49.594;10.958;2022-11-20T16:06:59;4.00;99.90
9265;DHT22;4669;49.594;10.958;2022-11-20T16:12:01;3.90;99.90
9265;DHT22;4669;49.594;10.958;2022-11-20T16:17:03;4.00;99.90
9265;DHT22;4669;49.594;10.958;2022-11-20T16:22:09;3.90;99.90
9265;DHT22;4669;49.594;10.958;2022-11-20T16:27:12;3.90;99.90
9265;DHT22;4669;49.594;10.958;2022-11-20T16:32:14;4.00;99.90
9265;DHT22;4669;49.594;10.958;2022-11-20T16:37:17;4.00;99.90
9265;DHT22;4669;49.594;10.958;2022-11-20T16:42:19;4.00;99.90
9265;DHT22;4669;49.594;10.958;2022-11-20T16:47:21;4.00;99.90
9265;DHT22;4669;49.594;10.958;2022-11-20T16:52:25;4.10;99.90
9265;DHT22;4669;49.594;10.958;2022-11-20T16:57:27;4.00;99.90
9265;DHT22;4669;49.594;10.958;2022-11-20T17:02:30;4.00;99.90
9265;DHT22;4669;49.594;10.958;2022-11-20T17:07:33;3.90;99.90
9265;DHT22;4669;49.594;10.958;2022-11-20T17:12:35;3.90;99.90
9265;DHT22;4669;49.594;10.958;2022-11-20T17:17:37;3.80;99.90
9265;DHT22;4669;49.594;10.958;2022-11-20T17:22:40;3.80;99.90
9265;DHT22;4669;49.594;10.958;2022-11-20T17:27:42;3.80;99.90
9265;DHT22;4669;49.594;10.958;2022-11-20T17:32:44;3.70;99.90
9265;DHT22;4669;49.594;10.958;2022-11-20T17:37:48;3.70;99.90
9265;DHT22;4669;49.594;10.958;2022-11-20T17:42:50;3.60;99.90
9265;DHT22;4669;49.594;10.958;2022-11-20T17:47:52;3.60;99.90
9265;DHT22;4669;49.594;10.958;2022-11-20T17:52:56;3.60;99.90
9265;DHT22;4669;49.594;10.958;2022-11-20T17:57:58;3.60;99.90
9265;DHT22;4669;49.594;10.958;2022-11-20T18:03:02;3.60;99.90
9265;DHT22;4669;49.594;10.958;2022-11-20T18:08:06;3.50;99.90
9265;DHT22;4669;49.594;10.958;2022-11-20T18:13:08;3.50;99.90
9265;DHT22;4669;49.594;10.958;2022-11-20T18:18:10;3.50;99.90
9265;DHT22;4669;49.594;10.958;2022-11-20T18:23:13;3.50;99.90
9265;DHT22;4669;49.594;10.958;2022-11-20T18:28:15;3.50;99.90
9265;DHT22;4669;49.594;10.958;2022-11-20T18:33:19;3.50;99.90
9265;DHT22;4669;49.594;10.958;2022-11-20T18:38:22;3.50;99.90
9265;DHT22;4669;49.594;10.958;2022-11-20T18:43:24;3.50;99.90
9265;DHT22;4669;49.594;10.958;2022-11-20T18:48:44;3.50;99.90
9265;DHT22;4669;49.594;10.958;2022-11-20T18:53:47;3.50;99.90
9265;DHT22;4669;49.594;10.958;2022-11-20T18:58:49;3.60;99.90
9265;DHT22;4669;49.594;10.958;2022-11-20T19:03:51;3.60;99.90
9265;DHT22;4669;49.594;10.958;2022-11-20T19:08:55;3.60;99.90
9265;DHT22;4669;49.594;10.958;2022-11-20T19:13:57;3.60;99.90
9265;DHT22;4669;49.594;10.958;2022-11-20T19:18:59;3.70;99.90
9265;DHT22;4669;49.594;10.958;2022-11-20T19:24:03;3.60;99.90
9265;DHT22;4669;49.594;10.958;2022-11-20T19:29:06;3.60;99.90
9265;DHT22;4669;49.594;10.958;2022-11-20T19:34:08;3.60;99.90
9265;DHT22;4669;49.594;10.958;2022-11-20T19:39:13;3.60;99.90
9265;DHT22;4669;49.594;10.958;2022-11-20T19:44:16;3.70;99.90
9265;DHT22;4669;49.594;10.958;2022-11-20T19:49:19;3.60;99.90
9265;DHT22;4669;49.594;10.958;2022-11-20T19:54:22;3.60;99.90
9265;DHT22;4669;49.594;10.958;2022-11-20T19:59:24;3.70;99.90
9265;DHT22;4669;49.594;10.958;2022-11-20T20:04:26;3.70;99.90
9265;DHT22;4669;49.594;10.958;2022-11-20T20:09:32;3.80;99.90
9265;DHT22;4669;49.594;10.958;2022-11-20T20:14:35;3.90;99.90
9265;DHT22;4669;49.594;10.958;2022-11-20T20:19:42;3.90;99.90
9265;DHT22;4669;49.594;10.958;2022-11-20T20:24:50;3.90;99.90
9265;DHT22;4669;49.594;10.958;2022-11-20T20:29:54;4.00;99.90
9265;DHT22;4669;49.594;10.958;2022-11-20T20:34:59;3.90;99.90
9265;DHT22;4669;49.594;10.958;2022-11-20T20:40:03;4.00;99.90
9265;DHT22;4669;49.594;10.958;2022-11-20T20:45:06;4.00;99.90
9265;DHT22;4669;49.594;10.958;2022-11-20T20:50:11;4.10;99.90
9265;DHT22;4669;49.594;10.958;2022-11-20T20:55:14;4.10;99.90
9265;DHT22;4669;49.594;10.958;2022-11-20T21:00:16;4.20;99.90
9265;DHT22;4669;49.594;10.958;2022-11-20T21:05:19;4.20;99.90
9265;DHT22;4669;49.594;10.958;2022-11-20T21:10:22;4.20;99.90
9265;DHT22;4669;49.594;10.958;2022-11-20T21:15:24;4.30;99.90
9265;DHT22;4669;49.594;10.958;2022-11-20T21:20:26;4.40;99.90
9265;DHT22;4669;49.594;10.958;2022-11-20T21:25:47;4.40;99.90
9265;DHT22;4669;49.594;10.958;2022-11-20T21:30:49;4.50;99.90
9265;DHT22;4669;49.594;10.958;2022-11-20T21:35:51;4.50;99.90
9265;DHT22;4669;49.594;10.958;2022-11-20T21:40:56;4.60;99.90
9265;DHT22;4669;49.594;10.958;2022-11-20T21:46:02;4.60;99.90
9265;DHT22;4669;49.594;10.958;2022-11-20T21:51:06;4.60;99.90
9265;DHT22;4669;49.594;10.958;2022-11-20T21:56:10;4.60;99.90
9265;DHT22;4669;49.594;10.958;2022-11-20T22:01:15;4.50;99.90
9265;DHT22;4669;49.594;10.958;2022-11-20T22:06:18;4.60;99.90
9265;DHT22;4669;49.594;10.958;2022-11-20T22:11:22;4.60;99.90
9265;DHT22;4669;49.594;10.958;2022-11-20T22:16:24;4.60;99.90
9265;DHT22;4669;49.594;10.958;2022-11-20T22:21:28;4.60;99.90
9265;DHT22;4669;49.594;10.958;2022-11-20T22:26:34;4.60;99.90
9265;DHT22;4669;49.594;10.958;2022-11-20T22:31:36;4.60;99.90
9265;DHT22;4669;49.594;10.958;2022-11-20T22:36:39;4.60;99.90
9265;DHT22;4669;49.594;10.958;2022-11-20T22:41:43;4.60;99.90
9265;DHT22;4669;49.594;10.958;2022-11-20T22:46:44;4.60;99.90
9265;DHT22;4669;49.594;10.958;2022-11-20T22:51:46;4.60;99.90
9265;DHT22;4669;49.594;10.958;2022-11-20T22:56:50;4.60;99.90
